TEA weather

Tela Airport
Tela, Atlantida, Honduras

Public forecast

Using degrees Celsius for public forecast. Weather courtesy of forecast.io.

METAR (pilot weather report)

Report is more than 6 hours old.

Retrieved 2019/04/19 18:00 UTC (3 days ago):

MHTE 191800Z 04004KT 9999 BKN028TCU BKN080 29/24 Q1012 TCU ALL HZ

TAF (pilot weather forecast)

Closest forecast is Ramón Villeda Morales International Airport, 32.4 nm (59.9 km) SW. Retrieved 2019/04/22 12:51 UTC (0 seconds ago):

TAF MHLM 221025Z 2212/2312 00000KT 9999 FEW026 TX33/2219Z TN21/2312Z BECMG 2215/2217 03008KT SCT028TCU BECMG 2304/2306 00000KT FEW024